createdAt,value
2017-03-28T00:00:04.461Z,0
2017-03-28T00:01:13.664Z,0
2017-03-28T00:02:22.863Z,0
2017-03-28T00:03:32.453Z,0
2017-03-28T00:04:41.340Z,0
2017-03-28T00:05:50.539Z,0
2017-03-28T00:06:59.741Z,0
2017-03-28T00:08:08.959Z,0
2017-03-28T00:09:17.549Z,0
2017-03-28T00:10:26.117Z,0
2017-03-28T00:11:34.687Z,0
2017-03-28T00:12:43.574Z,0
2017-03-28T00:13:52.473Z,0
2017-03-28T00:15:01.375Z,0
2017-03-28T00:16:10.542Z,0
2017-03-28T00:17:19.431Z,0
2017-03-28T00:18:28.322Z,0
2017-03-28T00:19:37.526Z,0
2017-03-28T00:20:46.729Z,0
2017-03-28T00:21:55.613Z,0
2017-03-28T00:23:04.183Z,0
2017-03-28T00:24:12.758Z,0
2017-03-28T00:25:21.329Z,0
2017-03-28T00:26:30.238Z,0
2017-03-28T00:27:39.128Z,0
2017-03-28T00:28:47.698Z,0
2017-03-28T00:29:56.589Z,0
2017-03-28T00:31:05.789Z,0
2017-03-28T00:32:14.358Z,0
2017-03-28T00:33:23.253Z,0
2017-03-28T00:34:32.458Z,0
2017-03-28T00:35:41.977Z,0
2017-03-28T00:36:50.864Z,0
2017-03-28T00:38:00.073Z,0
2017-03-28T00:39:08.645Z,0
2017-03-28T00:40:17.223Z,0
2017-03-28T00:41:25.795Z,0
2017-03-28T00:42:34.369Z,0
2017-03-28T00:43:43.257Z,0
2017-03-28T00:44:51.842Z,0
2017-03-28T00:46:00.727Z,0
2017-03-28T00:47:09.615Z,0
2017-03-28T00:48:18.827Z,0
2017-03-28T00:49:27.713Z,0
2017-03-28T00:50:36.599Z,0
2017-03-28T00:51:45.168Z,0
2017-03-28T00:52:53.742Z,0
2017-03-28T00:54:02.633Z,0
2017-03-28T00:55:11.519Z,0
2017-03-28T00:56:21.036Z,0
2017-03-28T00:57:29.921Z,0
2017-03-28T00:58:38.806Z,0
2017-03-28T00:59:47.694Z,0
2017-03-28T01:00:56.580Z,0
2017-03-28T01:02:05.159Z,0
2017-03-28T01:03:13.732Z,0
2017-03-28T01:04:22.650Z,0
2017-03-28T01:05:32.288Z,0
2017-03-28T01:06:41.300Z,0
2017-03-28T01:07:50.863Z,0
2017-03-28T01:08:59.750Z,0
2017-03-28T01:10:08.322Z,0
2017-03-28T01:11:17.521Z,0
2017-03-28T01:12:26.727Z,0
2017-03-28T01:13:36.253Z,0
2017-03-28T01:14:44.828Z,0
2017-03-28T01:15:53.721Z,0
2017-03-28T01:17:03.239Z,0
2017-03-28T01:18:12.986Z,0
2017-03-28T01:19:22.188Z,0
2017-03-28T01:20:30.754Z,0
2017-03-28T01:21:39.638Z,0
2017-03-28T01:22:48.529Z,0
2017-03-28T01:23:57.736Z,0
2017-03-28T01:25:06.950Z,0
2017-03-28T01:26:15.521Z,0
2017-03-28T01:27:24.404Z,0
2017-03-28T01:28:33.609Z,0
2017-03-28T01:29:42.176Z,0
2017-03-28T01:30:51.074Z,0
2017-03-28T01:31:59.673Z,0
2017-03-28T01:33:08.256Z,0
2017-03-28T01:34:17.154Z,0
2017-03-28T01:35:26.039Z,0
2017-03-28T01:36:34.926Z,0
2017-03-28T01:37:44.133Z,0
2017-03-28T01:38:53.343Z,0
2017-03-28T01:40:01.908Z,0
2017-03-28T01:41:10.802Z,0
2017-03-28T01:42:19.690Z,0
2017-03-28T01:43:28.577Z,0
2017-03-28T01:44:37.465Z,0
2017-03-28T01:45:46.346Z,0
2017-03-28T01:46:55.233Z,0
2017-03-28T01:48:04.442Z,0
2017-03-28T01:49:13.030Z,0
2017-03-28T01:50:21.603Z,0
2017-03-28T01:51:30.486Z,0
2017-03-28T01:52:39.374Z,0
2017-03-28T01:53:47.949Z,0
2017-03-28T01:54:57.159Z,0
2017-03-28T01:56:06.676Z,0
2017-03-28T01:57:15.560Z,0
2017-03-28T01:58:24.452Z,0
2017-03-28T01:59:33.024Z,0
2017-03-28T02:00:41.598Z,0
2017-03-28T02:01:50.511Z,0
2017-03-28T02:02:59.103Z,0
2017-03-28T02:04:08.006Z,0
2017-03-28T02:05:16.893Z,0
2017-03-28T02:06:26.088Z,0
2017-03-28T02:07:34.656Z,0
2017-03-28T02:08:43.868Z,0
2017-03-28T02:09:52.437Z,0
2017-03-28T02:11:01.006Z,0
2017-03-28T02:12:09.572Z,0
2017-03-28T02:13:18.147Z,0
2017-03-28T02:14:27.355Z,0
2017-03-28T02:15:36.238Z,0
2017-03-28T02:16:45.133Z,0
2017-03-28T02:17:54.478Z,0
2017-03-28T02:19:03.695Z,0
2017-03-28T02:20:13.355Z,0
2017-03-28T02:21:22.738Z,0
2017-03-28T02:22:31.639Z,0
2017-03-28T02:23:40.265Z,0
2017-03-28T02:24:48.836Z,0
2017-03-28T02:25:57.421Z,0
2017-03-28T02:27:06.650Z,0
2017-03-28T02:28:15.934Z,0
2017-03-28T02:29:24.962Z,0
2017-03-28T02:30:34.896Z,0
2017-03-28T02:31:45.211Z,0
2017-03-28T02:32:55.034Z,0
2017-03-28T02:34:04.581Z,0
2017-03-28T02:35:16.169Z,0
2017-03-28T02:36:26.705Z,0
2017-03-28T02:37:36.283Z,0
2017-03-28T02:38:45.176Z,0
2017-03-28T02:39:54.379Z,0
2017-03-28T02:41:02.948Z,0
2017-03-28T02:42:11.847Z,0
2017-03-28T02:43:20.735Z,0
2017-03-28T02:44:29.314Z,0
2017-03-28T02:45:37.882Z,0
2017-03-28T02:46:46.793Z,0
2017-03-28T02:47:55.682Z,0
2017-03-28T02:49:04.599Z,0
2017-03-28T02:50:13.799Z,0
2017-03-28T02:51:22.363Z,0
2017-03-28T02:52:31.043Z,0
2017-03-28T02:53:39.638Z,0
2017-03-28T02:54:48.211Z,0
2017-03-28T02:55:57.095Z,0
2017-03-28T02:57:05.987Z,0
2017-03-28T02:58:14.873Z,0
2017-03-28T02:59:23.441Z,0
2017-03-28T03:00:32.009Z,0
2017-03-28T03:01:40.832Z,0
2017-03-28T03:02:49.732Z,0
2017-03-28T03:03:58.620Z,0
2017-03-28T03:05:07.824Z,0
2017-03-28T03:06:17.025Z,0
2017-03-28T03:07:26.540Z,0
2017-03-28T03:08:35.116Z,0
2017-03-28T03:09:43.691Z,0
2017-03-28T03:10:52.578Z,0
2017-03-28T03:12:01.461Z,0
2017-03-28T03:13:10.346Z,0
2017-03-28T03:14:19.236Z,0
2017-03-28T03:15:27.804Z,0
2017-03-28T03:16:36.686Z,0
2017-03-28T03:17:45.827Z,0
2017-03-28T03:18:55.030Z,0
2017-03-28T03:20:04.561Z,0
2017-03-28T03:21:13.127Z,0
2017-03-28T03:22:22.329Z,0
2017-03-28T03:23:31.444Z,0
2017-03-28T03:24:40.360Z,0
2017-03-28T03:25:49.735Z,0
2017-03-28T03:26:58.622Z,0
2017-03-28T03:28:07.931Z,0
2017-03-28T03:29:17.255Z,0
2017-03-28T03:30:26.165Z,0
2017-03-28T03:31:34.845Z,0
2017-03-28T03:32:43.831Z,0
2017-03-28T03:33:52.651Z,0
2017-03-28T03:35:01.669Z,0
2017-03-28T03:36:10.299Z,0
2017-03-28T03:37:18.888Z,0
2017-03-28T03:38:27.568Z,0
2017-03-28T03:39:36.213Z,0
2017-03-28T03:40:44.808Z,0
2017-03-28T03:41:53.771Z,0
2017-03-28T03:43:02.754Z,0
2017-03-28T03:44:11.728Z,0
2017-03-28T03:45:20.744Z,0
2017-03-28T03:46:29.321Z,0
2017-03-28T03:47:38.708Z,0
2017-03-28T03:48:47.312Z,0
2017-03-28T03:49:56.205Z,0
2017-03-28T03:51:05.116Z,0
2017-03-28T03:52:14.412Z,0
2017-03-28T03:53:23.696Z,0
2017-03-28T03:54:32.365Z,0
2017-03-28T03:55:40.969Z,0
2017-03-28T03:56:50.026Z,0
2017-03-28T03:57:58.914Z,0
2017-03-28T03:59:07.646Z,0
2017-03-28T04:00:16.276Z,0
2017-03-28T04:01:24.947Z,0
2017-03-28T04:02:33.903Z,0
2017-03-28T04:03:43.175Z,0
2017-03-28T04:04:52.282Z,0
2017-03-28T04:06:01.266Z,0
2017-03-28T04:07:10.156Z,0
2017-03-28T04:08:19.043Z,0
2017-03-28T04:09:27.940Z,0
2017-03-28T04:10:36.510Z,0
2017-03-28T04:11:45.711Z,0
2017-03-28T04:12:54.299Z,0
2017-03-28T04:14:03.512Z,0
2017-03-28T04:15:12.082Z,0
2017-03-28T04:16:20.649Z,0
2017-03-28T04:17:29.534Z,0
2017-03-28T04:18:38.423Z,0
2017-03-28T04:19:47.010Z,0
2017-03-28T04:20:56.214Z,0
2017-03-28T04:22:05.099Z,0
2017-03-28T04:23:14.621Z,0
2017-03-28T04:24:23.510Z,0
2017-03-28T04:25:32.715Z,0
2017-03-28T04:26:41.600Z,0
2017-03-28T04:27:50.490Z,0
2017-03-28T04:29:00.335Z,0
2017-03-28T04:30:09.541Z,0
2017-03-28T04:31:18.739Z,0
2017-03-28T04:32:27.630Z,0
2017-03-28T04:33:36.519Z,0
2017-03-28T04:34:45.114Z,0
2017-03-28T04:35:54.628Z,0
2017-03-28T04:37:03.202Z,0
2017-03-28T04:38:11.777Z,0
2017-03-28T04:39:20.663Z,0
2017-03-28T04:40:29.551Z,0
2017-03-28T04:41:38.122Z,0
2017-03-28T04:42:47.327Z,0
2017-03-28T04:43:56.213Z,0
2017-03-28T04:45:05.101Z,0
2017-03-28T04:46:13.672Z,0
2017-03-28T04:47:22.559Z,0
2017-03-28T04:48:32.399Z,0
2017-03-28T04:49:40.966Z,0
2017-03-28T04:50:50.485Z,0
2017-03-28T04:51:59.370Z,0
2017-03-28T04:53:07.944Z,0
2017-03-28T04:54:17.152Z,0
2017-03-28T04:55:26.042Z,0
2017-03-28T04:56:34.629Z,0
2017-03-28T04:57:43.519Z,0
2017-03-28T04:58:52.409Z,0
2017-03-28T05:00:01.301Z,0
2017-03-28T05:01:09.960Z,0
2017-03-28T05:02:18.539Z,0
2017-03-28T05:03:27.120Z,0
2017-03-28T05:04:36.009Z,0
2017-03-28T05:05:44.894Z,0
2017-03-28T05:06:53.786Z,0
2017-03-28T05:08:02.675Z,0
2017-03-28T05:09:11.700Z,0
2017-03-28T05:10:21.175Z,0
2017-03-28T05:11:29.831Z,5
2017-03-28T05:12:38.808Z,5
2017-03-28T05:13:47.386Z,5
2017-03-28T05:14:56.616Z,5
2017-03-28T05:16:05.506Z,5
2017-03-28T05:17:14.394Z,5
2017-03-28T05:18:23.286Z,10
2017-03-28T05:19:32.811Z,10
2017-03-28T05:20:41.378Z,10
2017-03-28T05:21:49.947Z,10
2017-03-28T05:22:59.216Z,15
2017-03-28T05:24:08.103Z,15
2017-03-28T05:25:16.673Z,15
2017-03-28T05:26:25.284Z,15
2017-03-28T05:27:33.955Z,20
2017-03-28T05:28:42.888Z,20
2017-03-28T05:29:51.511Z,20
2017-03-28T05:31:00.713Z,25
2017-03-28T05:32:09.397Z,25
2017-03-28T05:33:18.291Z,25
2017-03-28T05:34:27.278Z,30
2017-03-28T05:35:35.944Z,30
2017-03-28T05:36:44.845Z,30
2017-03-28T05:37:53.420Z,35
2017-03-28T05:39:02.696Z,35
2017-03-28T05:40:11.710Z,40
2017-03-28T05:41:20.593Z,40
2017-03-28T05:42:30.117Z,40
2017-03-28T05:43:39.323Z,45
2017-03-28T05:44:47.890Z,45
2017-03-28T05:45:57.234Z,50
2017-03-28T05:47:06.754Z,50
2017-03-28T05:48:15.688Z,55
2017-03-28T05:49:24.586Z,55
2017-03-28T05:50:33.225Z,60
2017-03-28T05:51:42.430Z,60
2017-03-28T05:52:51.058Z,65
2017-03-28T05:54:00.364Z,65
2017-03-28T05:55:09.574Z,65
2017-03-28T05:56:18.463Z,70
2017-03-28T05:57:27.665Z,70
2017-03-28T05:58:36.557Z,70
2017-03-28T05:59:45.762Z,75
2017-03-28T06:00:54.647Z,75
2017-03-28T06:02:03.215Z,75
2017-03-28T06:03:12.102Z,75
2017-03-28T06:04:20.995Z,75
2017-03-28T06:05:29.880Z,80
2017-03-28T06:06:38.763Z,80
2017-03-28T06:07:47.989Z,80
2017-03-28T06:08:56.564Z,80
2017-03-28T06:10:05.451Z,85
2017-03-28T06:11:14.660Z,85
2017-03-28T06:12:23.228Z,90
2017-03-28T06:13:31.806Z,90
2017-03-28T06:14:40.692Z,90
2017-03-28T06:15:49.891Z,90
2017-03-28T06:16:58.776Z,95
2017-03-28T06:18:11.409Z,95
2017-03-28T06:19:21.165Z,95
2017-03-28T06:20:30.074Z,95
2017-03-28T06:21:38.964Z,100
2017-03-28T06:22:47.537Z,100
2017-03-28T06:23:56.768Z,100
2017-03-28T06:25:05.339Z,100
2017-03-28T06:26:14.320Z,100
2017-03-28T06:27:23.210Z,105
2017-03-28T06:28:31.781Z,105
2017-03-28T06:29:40.984Z,105
2017-03-28T06:30:49.566Z,105
2017-03-28T06:31:58.461Z,110
2017-03-28T06:33:07.345Z,105
2017-03-28T06:34:16.546Z,105
2017-03-28T06:35:25.432Z,110
2017-03-28T06:36:34.633Z,110
2017-03-28T06:37:43.843Z,115
2017-03-28T06:38:52.731Z,115
2017-03-28T06:40:01.935Z,115
2017-03-28T06:41:10.824Z,120
2017-03-28T06:42:19.395Z,120
2017-03-28T06:43:28.595Z,120
2017-03-28T06:44:37.493Z,120
2017-03-28T06:45:46.059Z,120
2017-03-28T06:46:54.633Z,120
2017-03-28T06:48:03.519Z,120
2017-03-28T06:49:12.091Z,120
2017-03-28T06:50:20.660Z,120
2017-03-28T06:51:29.543Z,120
2017-03-28T06:52:38.432Z,120
2017-03-28T06:53:47.950Z,125
2017-03-28T06:54:56.849Z,125
2017-03-28T06:56:05.420Z,125
2017-03-28T06:57:15.046Z,125
2017-03-28T06:58:24.270Z,125
2017-03-28T06:59:33.177Z,125
2017-03-28T07:00:42.066Z,125
2017-03-28T07:01:51.999Z,125
2017-03-28T07:03:01.689Z,125
2017-03-28T07:04:11.522Z,130
2017-03-28T07:05:20.562Z,130
2017-03-28T07:06:30.060Z,130
2017-03-28T07:07:39.487Z,130
2017-03-28T07:08:48.509Z,130
2017-03-28T07:09:58.131Z,135
2017-03-28T07:11:07.566Z,135
2017-03-28T07:12:16.751Z,135
2017-03-28T07:13:28.189Z,135
2017-03-28T07:14:39.210Z,135
2017-03-28T07:15:48.198Z,135
2017-03-28T07:16:57.123Z,135
2017-03-28T07:18:06.919Z,135
2017-03-28T07:19:17.220Z,135
2017-03-28T07:20:26.337Z,135
2017-03-28T07:21:35.441Z,135
2017-03-28T07:22:44.480Z,145
2017-03-28T07:23:53.752Z,140
2017-03-28T07:25:03.146Z,140
2017-03-28T07:26:12.093Z,140
2017-03-28T07:27:21.291Z,140
2017-03-28T07:28:30.318Z,140
2017-03-28T07:29:38.900Z,140
2017-03-28T07:30:47.931Z,140
2017-03-28T07:31:57.220Z,140
2017-03-28T07:33:05.794Z,140
2017-03-28T07:34:14.947Z,140
2017-03-28T07:35:23.531Z,140
2017-03-28T07:36:32.434Z,145
2017-03-28T07:37:41.394Z,145
2017-03-28T07:38:50.610Z,145
2017-03-28T07:39:59.445Z,145
2017-03-28T07:41:08.370Z,145
2017-03-28T07:42:17.450Z,145
2017-03-28T07:43:26.682Z,145
2017-03-28T07:44:36.125Z,145
2017-03-28T07:45:45.014Z,145
2017-03-28T07:46:53.903Z,145
2017-03-28T07:48:02.789Z,145
2017-03-28T07:49:11.665Z,145
2017-03-28T07:50:20.870Z,145
2017-03-28T07:51:29.759Z,145
2017-03-28T07:52:38.337Z,145
2017-03-28T07:53:46.921Z,145
2017-03-28T07:54:55.862Z,150
2017-03-28T07:56:04.467Z,150
2017-03-28T07:57:13.679Z,150
2017-03-28T07:58:23.573Z,145
2017-03-28T07:59:32.974Z,145
2017-03-28T08:00:41.954Z,150
2017-03-28T08:01:51.449Z,150
2017-03-28T08:03:00.394Z,150
2017-03-28T08:04:09.274Z,150
2017-03-28T08:05:18.199Z,150
2017-03-28T08:06:27.549Z,150
2017-03-28T08:07:37.435Z,150
2017-03-28T08:08:46.732Z,150
2017-03-28T08:09:56.198Z,150
2017-03-28T08:11:05.302Z,150
2017-03-28T08:12:15.613Z,150
2017-03-28T08:13:25.009Z,150
2017-03-28T08:14:34.625Z,150
2017-03-28T08:15:43.692Z,150
2017-03-28T08:16:52.869Z,150
2017-03-28T08:18:01.915Z,150
2017-03-28T08:19:11.234Z,155
2017-03-28T08:20:20.470Z,155
2017-03-28T08:21:29.340Z,155
2017-03-28T08:22:38.830Z,155
2017-03-28T08:23:48.156Z,155
2017-03-28T08:24:57.358Z,155
2017-03-28T08:26:05.937Z,155
2017-03-28T08:27:15.147Z,155
2017-03-28T08:28:24.356Z,160
2017-03-28T08:29:32.932Z,155
2017-03-28T08:30:41.838Z,155
2017-03-28T08:31:51.043Z,155
2017-03-28T08:32:59.640Z,155
2017-03-28T08:34:08.225Z,155
2017-03-28T08:35:17.117Z,155
2017-03-28T08:36:26.635Z,155
2017-03-28T08:37:36.165Z,155
2017-03-28T08:38:46.170Z,155
2017-03-28T08:39:55.387Z,155
2017-03-28T08:41:04.279Z,155
2017-03-28T08:42:12.853Z,155
2017-03-28T08:43:21.752Z,155
2017-03-28T08:44:31.531Z,155
2017-03-28T08:45:40.738Z,155
2017-03-28T08:46:49.938Z,160
2017-03-28T08:47:59.203Z,160
2017-03-28T08:49:08.577Z,160
2017-03-28T08:50:18.113Z,160
2017-03-28T08:51:27.403Z,160
2017-03-28T08:52:36.300Z,160
2017-03-28T08:53:48.404Z,160
2017-03-28T08:54:58.078Z,160
2017-03-28T08:56:06.978Z,160
2017-03-28T08:57:16.228Z,160
2017-03-28T08:58:25.274Z,160
2017-03-28T08:59:34.554Z,160
2017-03-28T09:00:44.578Z,160
2017-03-28T09:01:53.774Z,160
2017-03-28T09:03:04.076Z,160
2017-03-28T09:04:13.193Z,160
2017-03-28T09:05:22.000Z,160
2017-03-28T09:06:31.212Z,160
2017-03-28T09:07:40.428Z,160
2017-03-28T09:08:49.680Z,160
2017-03-28T09:09:58.805Z,160
2017-03-28T09:11:07.694Z,160
2017-03-28T09:12:16.604Z,160
2017-03-28T09:13:25.189Z,160
2017-03-28T09:14:34.087Z,160
2017-03-28T09:15:44.262Z,160
2017-03-28T09:16:53.251Z,160
2017-03-28T09:18:02.279Z,160
2017-03-28T09:19:11.872Z,160
2017-03-28T09:20:21.023Z,160
2017-03-28T09:21:31.543Z,160
2017-03-28T09:22:40.525Z,160
2017-03-28T09:23:49.280Z,160
2017-03-28T09:24:58.655Z,160
2017-03-28T09:26:08.288Z,160
2017-03-28T09:27:18.006Z,160
2017-03-28T09:28:26.978Z,160
2017-03-28T09:29:36.173Z,165
2017-03-28T09:30:45.123Z,165
2017-03-28T09:31:55.571Z,165
2017-03-28T09:33:05.115Z,165
2017-03-28T09:34:15.894Z,165
2017-03-28T09:35:25.651Z,165
2017-03-28T09:36:34.720Z,165
2017-03-28T09:37:43.698Z,165
2017-03-28T09:38:52.311Z,165
2017-03-28T09:40:03.020Z,165
2017-03-28T09:41:11.598Z,165
2017-03-28T09:42:20.174Z,165
2017-03-28T09:43:29.095Z,165
2017-03-28T09:44:37.998Z,165
2017-03-28T09:45:46.891Z,165
2017-03-28T09:46:55.462Z,165
2017-03-28T09:48:04.036Z,165
2017-03-28T09:49:12.612Z,160
2017-03-28T09:50:21.190Z,165
2017-03-28T09:51:29.767Z,165
2017-03-28T09:52:38.683Z,165
2017-03-28T09:53:48.374Z,165
2017-03-28T09:54:57.634Z,170
2017-03-28T09:56:07.058Z,165
2017-03-28T09:57:15.955Z,165
2017-03-28T09:58:25.184Z,165
2017-03-28T09:59:34.389Z,165
2017-03-28T10:00:43.311Z,165
2017-03-28T10:01:52.204Z,165
2017-03-28T10:03:00.781Z,165
2017-03-28T10:04:09.365Z,165
2017-03-28T10:05:17.940Z,165
2017-03-28T10:06:26.515Z,165
2017-03-28T10:07:35.177Z,170
2017-03-28T10:08:45.739Z,170
2017-03-28T10:09:54.685Z,170
2017-03-28T10:11:03.905Z,170
2017-03-28T10:12:13.164Z,170
2017-03-28T10:13:21.737Z,170
2017-03-28T10:14:30.313Z,170
2017-03-28T10:15:39.204Z,170
2017-03-28T10:16:47.778Z,175
2017-03-28T10:17:56.666Z,175
2017-03-28T10:19:06.188Z,175
2017-03-28T10:20:15.331Z,175
2017-03-28T10:21:24.998Z,175
2017-03-28T10:22:33.939Z,175
2017-03-28T10:23:43.149Z,175
2017-03-28T10:24:52.041Z,175
2017-03-28T10:26:01.247Z,175
2017-03-28T10:27:10.470Z,175
2017-03-28T10:28:19.048Z,175
2017-03-28T10:29:27.618Z,175
2017-03-28T10:30:37.145Z,175
2017-03-28T10:31:46.047Z,175
2017-03-28T10:32:54.624Z,175
2017-03-28T10:34:03.703Z,175
2017-03-28T10:35:12.633Z,175
2017-03-28T10:36:21.522Z,175
2017-03-28T10:37:30.411Z,175
2017-03-28T10:38:38.991Z,175
2017-03-28T10:39:47.893Z,175
2017-03-28T10:40:56.670Z,175
2017-03-28T10:42:05.250Z,175
2017-03-28T10:43:14.150Z,175
2017-03-28T10:44:23.047Z,175
2017-03-28T10:45:31.941Z,175
2017-03-28T10:46:40.890Z,175
2017-03-28T10:47:50.110Z,175
2017-03-28T10:48:59.010Z,175
2017-03-28T10:50:07.922Z,175
2017-03-28T10:51:16.571Z,175
2017-03-28T10:52:25.467Z,175
2017-03-28T10:53:37.060Z,175
2017-03-28T10:54:49.420Z,170
2017-03-28T10:55:58.325Z,175
2017-03-28T10:57:07.858Z,175
2017-03-28T10:58:16.439Z,175
2017-03-28T10:59:25.336Z,175
2017-03-28T11:00:34.558Z,175
2017-03-28T11:01:43.450Z,175
2017-03-28T11:02:52.683Z,170
2017-03-28T11:04:02.270Z,170
2017-03-28T11:05:10.842Z,170
2017-03-28T11:06:19.734Z,175
2017-03-28T11:07:28.633Z,170
2017-03-28T11:08:37.841Z,170
2017-03-28T11:09:47.051Z,170
2017-03-28T11:10:55.943Z,170
2017-03-28T11:12:05.152Z,170
2017-03-28T11:13:13.786Z,170
2017-03-28T11:14:22.682Z,170
2017-03-28T11:15:31.609Z,170
2017-03-28T11:16:40.507Z,170
2017-03-28T11:17:49.403Z,175
2017-03-28T11:18:58.346Z,170
2017-03-28T11:20:06.928Z,170
2017-03-28T11:21:15.879Z,170
2017-03-28T11:22:25.238Z,175
2017-03-28T11:23:34.198Z,175
2017-03-28T11:24:43.321Z,175
2017-03-28T11:25:52.222Z,175
2017-03-28T11:27:01.796Z,175
2017-03-28T11:28:10.786Z,170
2017-03-28T11:29:19.422Z,175
2017-03-28T11:30:29.033Z,180
2017-03-28T11:31:38.070Z,175
2017-03-28T11:32:47.272Z,175
2017-03-28T11:33:56.204Z,175
2017-03-28T11:35:04.829Z,175
2017-03-28T11:36:13.800Z,175
2017-03-28T11:37:23.219Z,175
2017-03-28T11:38:32.007Z,175
2017-03-28T11:39:41.310Z,175
2017-03-28T11:40:50.246Z,175
2017-03-28T11:41:58.893Z,175
2017-03-28T11:43:08.140Z,175
2017-03-28T11:44:17.400Z,180
2017-03-28T11:45:26.984Z,180
2017-03-28T11:46:36.557Z,175
2017-03-28T11:47:45.172Z,175
2017-03-28T11:48:53.796Z,175
2017-03-28T11:50:03.008Z,175
2017-03-28T11:51:11.987Z,175
2017-03-28T11:52:20.881Z,175
2017-03-28T11:53:30.101Z,180
2017-03-28T11:54:39.307Z,175
2017-03-28T11:55:48.202Z,175
2017-03-28T11:56:57.666Z,175
2017-03-28T11:58:06.561Z,175
2017-03-28T11:59:16.023Z,175
2017-03-28T12:00:24.610Z,175
2017-03-28T12:01:33.190Z,175
2017-03-28T12:02:41.770Z,175
2017-03-28T12:03:50.668Z,180
2017-03-28T12:05:00.336Z,175
2017-03-28T12:06:09.600Z,175
2017-03-28T12:07:18.810Z,180
2017-03-28T12:08:27.393Z,180
2017-03-28T12:09:35.968Z,180
2017-03-28T12:10:44.861Z,180
2017-03-28T12:11:54.075Z,180
2017-03-28T12:13:02.967Z,180
2017-03-28T12:14:11.548Z,180
2017-03-28T12:15:20.449Z,180
2017-03-28T12:16:29.353Z,180
2017-03-28T12:17:38.243Z,185
2017-03-28T12:18:46.816Z,180
2017-03-28T12:19:55.710Z,180
2017-03-28T12:21:04.601Z,180
2017-03-28T12:22:14.205Z,185
2017-03-28T12:23:24.049Z,180
2017-03-28T12:24:33.691Z,180
2017-03-28T12:25:42.269Z,180
2017-03-28T12:26:51.477Z,180
2017-03-28T12:28:00.059Z,185
2017-03-28T12:29:08.655Z,185
2017-03-28T12:30:17.232Z,185
2017-03-28T12:31:25.811Z,185
2017-03-28T12:32:34.730Z,185
2017-03-28T12:33:43.629Z,185
2017-03-28T12:34:52.793Z,185
2017-03-28T12:36:01.687Z,185
2017-03-28T12:37:10.588Z,185
2017-03-28T12:38:20.135Z,190
2017-03-28T12:39:29.035Z,185
2017-03-28T12:40:37.609Z,185
2017-03-28T12:41:46.505Z,185
2017-03-28T12:42:55.407Z,185
2017-03-28T12:44:04.618Z,185
2017-03-28T12:45:13.547Z,185
2017-03-28T12:46:22.442Z,190
2017-03-28T12:47:31.014Z,190
2017-03-28T12:48:39.598Z,190
2017-03-28T12:49:48.496Z,185
2017-03-28T12:50:57.708Z,185
2017-03-28T12:52:06.956Z,185
2017-03-28T12:53:15.534Z,185
2017-03-28T12:54:24.222Z,185
2017-03-28T12:55:33.125Z,185
2017-03-28T12:56:41.723Z,185
2017-03-28T12:57:55.826Z,185
2017-03-28T12:59:07.850Z,185
2017-03-28T13:00:18.366Z,185
2017-03-28T13:01:28.886Z,180
2017-03-28T13:02:39.593Z,185
2017-03-28T13:03:50.207Z,180
2017-03-28T13:05:00.160Z,180
2017-03-28T13:06:09.960Z,180
2017-03-28T13:07:19.826Z,180
2017-03-28T13:08:31.364Z,185
2017-03-28T13:09:42.761Z,180
2017-03-28T13:10:53.954Z,185
2017-03-28T13:12:05.283Z,185
2017-03-28T13:13:16.870Z,180
2017-03-28T13:14:25.781Z,180
2017-03-28T13:15:35.146Z,180
2017-03-28T13:16:44.047Z,180
2017-03-28T13:17:54.785Z,180
2017-03-28T13:19:06.304Z,185
2017-03-28T13:20:16.079Z,175
2017-03-28T13:21:25.284Z,175
2017-03-28T13:22:34.495Z,180
2017-03-28T13:23:43.428Z,180
2017-03-28T13:24:52.037Z,180
2017-03-28T13:26:00.935Z,180
2017-03-28T13:27:10.155Z,180
2017-03-28T13:28:19.075Z,180
2017-03-28T13:29:27.969Z,180
2017-03-28T13:30:37.191Z,185
2017-03-28T13:31:45.778Z,180
2017-03-28T13:32:54.675Z,180
2017-03-28T13:34:03.577Z,180
2017-03-28T13:35:12.485Z,180
2017-03-28T13:36:21.700Z,180
2017-03-28T13:37:30.592Z,180
2017-03-28T13:38:39.487Z,180
2017-03-28T13:39:48.704Z,180
2017-03-28T13:40:57.913Z,180
2017-03-28T13:42:06.813Z,180
2017-03-28T13:43:15.709Z,180
2017-03-28T13:44:24.922Z,180
2017-03-28T13:45:33.827Z,180
2017-03-28T13:46:42.720Z,180
2017-03-28T13:47:51.612Z,180
2017-03-28T13:49:00.821Z,180
2017-03-28T13:50:09.717Z,180
2017-03-28T13:51:18.609Z,180
2017-03-28T13:52:27.366Z,180
2017-03-28T13:53:37.355Z,175
2017-03-28T13:54:46.247Z,175
2017-03-28T13:55:55.148Z,180
2017-03-28T13:57:04.239Z,180
2017-03-28T13:58:13.939Z,180
2017-03-28T13:59:23.586Z,180
2017-03-28T14:00:32.797Z,180
2017-03-28T14:01:42.045Z,175
2017-03-28T14:02:50.940Z,175
2017-03-28T14:03:59.517Z,175
2017-03-28T14:05:08.106Z,180
2017-03-28T14:06:17.329Z,185
2017-03-28T14:07:26.534Z,180
2017-03-28T14:08:35.755Z,175
2017-03-28T14:09:44.654Z,175
2017-03-28T14:10:53.588Z,175
2017-03-28T14:12:02.505Z,175
2017-03-28T14:13:11.402Z,175
2017-03-28T14:14:20.611Z,170
2017-03-28T14:15:29.294Z,170
2017-03-28T14:16:37.919Z,170
2017-03-28T14:17:47.137Z,170
2017-03-28T14:18:56.362Z,170
2017-03-28T14:20:04.939Z,170
2017-03-28T14:21:13.838Z,170
2017-03-28T14:22:22.745Z,170
2017-03-28T14:23:31.320Z,170
2017-03-28T14:24:40.217Z,170
2017-03-28T14:25:49.107Z,170
2017-03-28T14:26:58.345Z,170
2017-03-28T14:28:06.926Z,170
2017-03-28T14:29:15.516Z,170
2017-03-28T14:30:24.453Z,170
2017-03-28T14:31:34.575Z,170
2017-03-28T14:32:43.490Z,170
2017-03-28T14:33:52.073Z,170
2017-03-28T14:35:00.965Z,170
2017-03-28T14:36:10.145Z,170
2017-03-28T14:37:19.657Z,170
2017-03-28T14:38:29.123Z,170
2017-03-28T14:39:38.028Z,170
2017-03-28T14:40:46.609Z,170
2017-03-28T14:41:56.457Z,170
2017-03-28T14:43:05.693Z,170
2017-03-28T14:44:14.619Z,170
2017-03-28T14:45:23.243Z,170
2017-03-28T14:46:31.816Z,170
2017-03-28T14:47:40.754Z,170
2017-03-28T14:48:49.651Z,170
2017-03-28T14:49:58.544Z,170
2017-03-28T14:51:07.449Z,170
2017-03-28T14:52:16.661Z,170
2017-03-28T14:53:25.555Z,170
2017-03-28T14:54:34.137Z,170
2017-03-28T14:55:43.037Z,170
2017-03-28T14:56:51.869Z,170
2017-03-28T14:58:00.759Z,170
2017-03-28T14:59:09.334Z,165
2017-03-28T15:00:18.234Z,165
2017-03-28T15:01:27.126Z,165
2017-03-28T15:02:35.704Z,160
2017-03-28T15:03:44.600Z,160
2017-03-28T15:04:53.499Z,160
2017-03-28T15:06:02.086Z,160
2017-03-28T15:07:11.311Z,165
2017-03-28T15:08:20.970Z,160
2017-03-28T15:09:29.541Z,160
2017-03-28T15:10:38.483Z,160
2017-03-28T15:11:47.067Z,155
2017-03-28T15:12:55.906Z,155
2017-03-28T15:14:04.513Z,150
2017-03-28T15:15:13.545Z,150
2017-03-28T15:16:22.216Z,155
2017-03-28T15:17:31.958Z,155
2017-03-28T15:18:41.257Z,155
2017-03-28T15:19:50.085Z,140
2017-03-28T15:20:59.178Z,135
2017-03-28T15:22:08.160Z,140
2017-03-28T15:23:17.303Z,150
2017-03-28T15:24:25.892Z,150
2017-03-28T15:25:34.478Z,160
2017-03-28T15:26:43.378Z,165
2017-03-28T15:27:51.969Z,165
2017-03-28T15:29:00.565Z,160
2017-03-28T15:30:09.543Z,160
2017-03-28T15:31:18.474Z,165
2017-03-28T15:32:27.900Z,165
2017-03-28T15:33:37.274Z,165
2017-03-28T15:34:46.205Z,165
2017-03-28T15:35:55.098Z,165
2017-03-28T15:37:04.109Z,165
2017-03-28T15:38:15.303Z,165
2017-03-28T15:39:23.891Z,165
2017-03-28T15:40:32.480Z,165
2017-03-28T15:41:41.070Z,165
2017-03-28T15:42:49.958Z,170
2017-03-28T15:43:58.857Z,170
2017-03-28T15:45:08.387Z,170
2017-03-28T15:46:17.595Z,170
2017-03-28T15:47:26.547Z,175
2017-03-28T15:48:35.124Z,175
2017-03-28T15:49:44.024Z,170
2017-03-28T15:50:52.598Z,165
2017-03-28T15:52:01.181Z,160
2017-03-28T15:53:10.080Z,155
2017-03-28T15:54:19.605Z,150
2017-03-28T15:55:28.501Z,150
2017-03-28T15:56:37.711Z,145
2017-03-28T15:57:46.663Z,145
2017-03-28T15:58:55.557Z,150
2017-03-28T16:00:04.177Z,145
2017-03-28T16:01:13.075Z,150
2017-03-28T16:02:21.649Z,150
2017-03-28T16:03:30.882Z,150
2017-03-28T16:04:40.088Z,155
2017-03-28T16:05:48.980Z,155
2017-03-28T16:06:58.187Z,150
2017-03-28T16:08:07.400Z,150
2017-03-28T16:09:15.992Z,145
2017-03-28T16:10:24.571Z,140
2017-03-28T16:11:33.155Z,140
2017-03-28T16:12:42.049Z,145
2017-03-28T16:13:50.726Z,140
2017-03-28T16:14:59.642Z,140